AirNav   Everest Fuels
 
 1067 users online  

MO19 American Legion-Village of Centertown Heliport
Centertown, Missouri, USA

GOING TO CENTERTOWN?


FAA INFORMATION EFFECTIVE 30 JANUARY 2020

Location

FAA Identifier: MO19
Lat/Long: 38-36-47.1100N 092-24-43.6700W
38-36.785167N 092-24.727833W
38.6130861,-92.4121306
(estimated)
Elevation: 805 ft. / 245 m (estimated)
Variation: 02E (2000)
Time zone: UTC -6 (UTC -5 during Daylight Saving Time)
Zip code: 65023

Heliport Operations

Heliport use: Private use. Permission required prior to landing
Activation date: 12/2000
Control tower: no
ARTCC: KANSAS CITY CENTER
FSS: COLUMBIA FLIGHT SERVICE STATION
Attendance: UNATNDD
Wind indicator: lighted
Segmented circle: no
Lights: ACTVT PERIMETER LGTS - 122.9.

Heliport Communications

WX ASOS at JEF (12 nm E): 133.625 (573-635-9266)
WX ASOS at COU (15 nm NE): 128.45 (573-499-1400)

Nearby radio navigation aids

VOR radial/distance  VOR name  Freq  Var
COUr217/14.9COLUMBIA VOR/DME110.2000E
HLVr198/32.8HALLSVILLE VORTAC114.2006E
SHYr015/35.5SUNSHINE VOR/DME108.4000E

 
NDB name  Hdg/Dist  Freq  Var  ID
SEDALIA096/36.228103EDMO -.. -- ---

Heliport Services

Runway Information

Helipad H1

Dimensions: 30 x 30 ft. / 9 x 9 m
Surface: concrete, in good condition
Runway edge lights: PERI
Traffic pattern: leftleft

Heliport Ownership and Management from official FAA records

Ownership: Privately-owned
Owner: AMERICAN LEGION/VILLAGE CENTERTOWN
531 STATE RT. U
CENTERTOWN, MO 65023
Phone 573-584-3844
Manager: ROBERT H. PRICE
52337 BIRD HAVEN RD
CENTERTOWN, MO 65023
Phone 573-584-3844

Additional Remarks

A52-H1 H1-25 FT TREE 190 FT SW & 39 FT TREES 260 FT SW OF HELIPAD.
FOR CD CTC MIZZOU APCH AT 417-868-5620/5619.

Instrument Procedures

There are no published instrument procedures at MO19.

Some nearby airports with instrument procedures:

KJEF - Jefferson City Memorial Airport (12 nm E)
KCOU - Columbia Regional Airport (15 nm NE)
H79 - Eldon Model Airpark (17 nm SW)
KFTT - Elton Hensley Memorial Airport (23 nm NE)
KVER - Jesse Viertel Memorial Airport (24 nm NW)
 
Loc | Ops | Rwys | IFR | FBO | Links
Com | Nav | Svcs | Stats | Notes

Kansas City Aviation Department
 
Area around MO19 (American Legion-Village of Centertown Heliport)
 
Road maps at: MapQuest Bing Google
 
Aerial photo
No photo
 
Sectional chart

 
Airport distance calculator
Flying to American Legion-Village of Centertown Heliport? Find the distance to fly.

From to MO19

Sunrise and sunset
Times for 26-Feb-2020
 Local
(UTC-6)
 Zulu
(UTC)
Morning civil twilight06:2012:20
Sunrise06:4712:47
Sunset17:5823:58
Evening civil twilight18:2500:25

Current date and time
Zulu (UTC)  26-Feb-2020 13:27:45
Local (UTC-6)  26-Feb-2020 07:27:45
 
METAR
KJEF 
12nm E 
261253Z 34008KT 9SM SCT018 BKN025 OVC031 00/M03 A3018 RMK AO2 SNB02E49 SLP215 P0000 T00001028
KCOU 
15nm NE 
261254Z 34014KT 4SM -SN BR BKN015 OVC021 M01/M03 A3016 RMK AO2 SLP221 P0000 T10111028
KVER 
24nm NW 
261315Z AUTO 33008KT 10SM BKN070 OVC090 00/M04 A3021 RMK AO2 T10051039
TAF
KCOU 
15nm NE 
261120Z 2612/2712 34012G21KT P6SM OVC012 FM261600 34014G21KT P6SM BKN025 FM261800 33014G22KT P6SM BKN040 FM270000 32009KT P6SM FEW250 FM270600 VRB04KT P6SM SKC
NOTAMs
Click for the latest NOTAMs
NOTAMs are issued by the DoD/FAA and will open in a separate window not controlled by AirNav.

 

 
 

Would you like to see your business listed on this page?

 If your business provides an interesting product or service to pilots, flight crews, aircraft, or users of the American Legion-Village of Centertown Heliport, you should consider listing it here.  To start the listing process, click on the button below
 
Add a business
 

Other Pages about American Legion-Village of Centertown Heliport

Update a link
 
Copyright © AirNav, LLC. All rights reserved. Privacy Policy  Contact